Terminal Aerodrome Forecast
Issued by NWS

Home | Current Version | Previous Version | Graphics & Text | Print | Product List | Glossary On
Versions: 1 2 3 4 5 6 7 8 9 10 11 12 13 14 15 16 17 18 19 20 21 22 23 24 25 26 27 28
000
FTUS43 KGRB 190520
TAFRHI
TAF
KRHI 190520Z 1906/2006 31003KT P6SM SCT150
     FM191100 VRB03KT 5SM BR SCT150
     FM191600 VRB03KT P6SM SCT150
     FM192300 13004KT P6SM BKN150
     FM200300 13004KT P6SM BKN090=

USA.gov is the U.S. government's official web portal to all federal, state and local government web resources and services.